createdAt,value
2018-11-01T00:14:09.670Z,103097.47
2018-11-01T00:19:30.761Z,103098.33
2018-11-01T00:22:13.394Z,103096.92
2018-11-01T00:29:19.574Z,103102.58
2018-11-01T00:31:47.676Z,103095.20
2018-11-01T00:34:15.825Z,103095.52
2018-11-01T00:36:43.926Z,103092.13
2018-11-01T00:39:13.274Z,103074.72
2018-11-01T00:41:41.424Z,103077.88
2018-11-01T00:44:09.661Z,103085.81
2018-11-01T00:46:37.755Z,103089.25
2018-11-01T00:49:05.815Z,103068.78
2018-11-01T00:51:34.194Z,103059.22
2018-11-01T00:54:02.267Z,103042.53
2018-11-01T00:56:30.536Z,103048.50
2018-11-01T00:58:58.735Z,103039.78
2018-11-01T01:01:26.843Z,103031.86
2018-11-01T01:03:54.962Z,103013.19
2018-11-01T01:06:23.090Z,103006.75
2018-11-01T01:08:51.206Z,102991.13
2018-11-01T01:11:19.290Z,102990.38
2018-11-01T02:17:28.205Z,102901.50
2018-11-01T03:25:55.567Z,102887.80
2018-11-01T04:19:46.308Z,103086.32
2018-11-01T04:28:08.419Z,103139.75
2018-11-01T04:30:36.598Z,103144.28
2018-11-01T04:33:04.954Z,103151.22
2018-11-01T04:35:33.000Z,103151.72
2018-11-01T04:38:01.114Z,103147.31
2018-11-01T04:40:29.313Z,103148.54
2018-11-01T04:42:57.510Z,103129.50
2018-11-01T04:45:25.518Z,103113.88
2018-11-01T04:47:53.821Z,103110.93
2018-11-01T04:50:21.804Z,103099.37
2018-11-01T04:52:49.908Z,103068.52
2018-11-01T04:55:17.989Z,103002.62
2018-11-01T04:57:46.121Z,103028.80
2018-11-01T05:00:14.781Z,103013.81
2018-11-01T05:02:43.445Z,103012.67
2018-11-01T05:05:11.710Z,102992.10
2018-11-01T05:07:39.802Z,102954.55
2018-11-01T05:10:09.043Z,102978.22
2018-11-01T05:12:37.498Z,103032.23
2018-11-01T05:15:05.906Z,103042.81
2018-11-01T05:17:33.997Z,103058.11
2018-11-01T05:20:02.082Z,103078.59
2018-11-01T05:31:27.729Z,103127.38
2018-11-01T05:33:55.842Z,103151.28
2018-11-01T05:36:23.923Z,103148.54
2018-11-01T05:38:52.029Z,103179.20
2018-11-01T05:41:20.132Z,103174.83
2018-11-01T05:43:48.259Z,103159.38
2018-11-01T05:46:16.330Z,103130.08
2018-11-01T05:48:44.443Z,103119.35
2018-11-01T05:51:12.580Z,103111.13
2018-11-01T05:53:40.693Z,103135.56
2018-11-01T05:56:08.789Z,103125.55
2018-11-01T05:58:36.865Z,103097.77
2018-11-01T06:01:06.955Z,103103.94
2018-11-01T06:03:35.074Z,103103.56
2018-11-01T06:06:03.177Z,103090.36
2018-11-01T06:08:34.816Z,103052.77
2018-11-01T06:11:02.928Z,103061.77
2018-11-01T06:16:23.469Z,103035.81
2018-11-01T06:18:51.569Z,103044.83
2018-11-01T06:21:19.683Z,103054.38
2018-11-01T06:27:03.370Z,102913.91
2018-11-01T06:29:31.494Z,103576.87
2018-11-01T06:31:59.595Z,103405.47
2018-11-01T06:34:35.646Z,103408.56
2018-11-01T06:37:03.771Z,103403.09
2018-11-01T06:39:31.873Z,103408.46
2018-11-01T06:41:59.943Z,103409.11
2018-11-01T06:44:28.057Z,103397.83
2018-11-01T06:46:56.174Z,103383.33
2018-11-01T06:49:24.291Z,103407.00
2018-11-01T06:51:52.386Z,103442.27
2018-11-01T06:54:20.515Z,103453.92
2018-11-01T06:56:48.655Z,103444.95
2018-11-01T06:59:17.030Z,103472.48
2018-11-01T07:01:44.962Z,103497.21
2018-11-01T07:04:13.142Z,103512.36
2018-11-01T07:06:41.275Z,103505.28
2018-11-01T07:09:11.330Z,103546.52
2018-11-01T07:11:39.495Z,103535.92
2018-11-01T08:23:30.973Z,103038.52
2018-11-01T08:25:59.076Z,102976.20
2018-11-01T09:19:43.413Z,102509.31
2018-11-01T12:14:49.220Z,102587.96
2018-11-01T12:17:17.329Z,102590.42
2018-11-01T13:13:47.256Z,102743.61
2018-11-01T13:16:15.370Z,102750.53
2018-11-01T13:18:43.480Z,102759.91
2018-11-01T13:21:11.579Z,102770.41
2018-11-01T13:23:39.682Z,102768.26
2018-11-01T13:29:00.632Z,102781.20
2018-11-01T13:31:28.704Z,102820.48
2018-11-01T13:33:56.796Z,102836.13
2018-11-01T13:36:24.894Z,102846.41
2018-11-01T13:38:52.981Z,102862.36
2018-11-01T13:41:21.179Z,102896.97
2018-11-01T13:43:49.203Z,102929.28
2018-11-01T13:46:17.309Z,102926.53
2018-11-01T13:48:45.467Z,102929.60
2018-11-01T13:51:13.547Z,102923.17
2018-11-01T13:53:41.634Z,102953.69
2018-11-01T13:56:09.783Z,102987.44
2018-11-01T13:58:37.924Z,103004.77
2018-11-01T14:01:06.542Z,103026.92
2018-11-01T14:03:34.638Z,103026.17
2018-11-01T14:06:02.814Z,103043.89
2018-11-01T14:08:30.861Z,103080.02
2018-11-01T14:10:58.992Z,103106.69
2018-11-01T15:14:13.261Z,103171.84
2018-11-01T15:16:41.359Z,103179.43
2018-11-01T15:19:09.795Z,103219.92
2018-11-01T15:21:38.074Z,103214.81
2018-11-01T15:32:53.279Z,103214.48
2018-11-01T15:35:21.347Z,103221.44
2018-11-01T15:37:49.409Z,103192.92
2018-11-01T15:40:17.520Z,103184.16
2018-11-01T15:42:45.669Z,103207.80
2018-11-01T15:45:14.474Z,103200.38
2018-11-01T15:47:43.009Z,103197.98
2018-11-01T15:50:12.211Z,103218.47
2018-11-01T15:52:40.299Z,103205.87
2018-11-01T15:55:08.756Z,103189.56
2018-11-01T15:57:37.127Z,103174.56
2018-11-01T16:00:05.533Z,103181.27
2018-11-01T16:02:33.700Z,103169.77
2018-11-01T16:05:01.781Z,103200.28
2018-11-01T16:07:29.909Z,103188.56
2018-11-01T16:09:58.056Z,103208.27
2018-11-01T16:12:26.156Z,103211.12
2018-11-01T16:29:36.384Z,103147.44
2018-11-01T16:32:04.537Z,103115.27
2018-11-01T16:34:32.709Z,103159.71
2018-11-01T16:37:00.882Z,103171.65
2018-11-01T16:39:28.898Z,103239.36
2018-11-01T16:41:57.021Z,103266.95
2018-11-01T16:44:25.118Z,103268.06
2018-11-01T16:46:53.234Z,103213.94
2018-11-01T16:49:21.315Z,103253.13
2018-11-01T16:51:49.418Z,103260.91
2018-11-01T16:54:17.581Z,103217.59
2018-11-01T16:56:45.665Z,103225.55
2018-11-01T16:59:13.792Z,103216.66
2018-11-01T17:01:41.881Z,103238.07
2018-11-01T17:04:09.966Z,103251.73
2018-11-01T17:06:38.104Z,103258.03
2018-11-01T17:09:08.566Z,103199.95
2018-11-01T17:11:36.626Z,103250.41
2018-11-01T17:14:04.807Z,103327.17
2018-11-01T17:16:32.875Z,103265.98
2018-11-01T18:29:11.597Z,103094.21
2018-11-01T18:31:39.761Z,103094.80
2018-11-01T18:34:07.881Z,103042.89
2018-11-01T18:36:35.991Z,102986.42
2018-11-01T18:39:05.168Z,102940.80
2018-11-01T18:41:33.209Z,102898.44
2018-11-01T18:44:01.298Z,102905.48
2018-11-01T18:46:29.393Z,102885.72
2018-11-01T18:48:57.463Z,102922.78
2018-11-01T18:51:25.571Z,102912.61
2018-11-01T18:53:53.702Z,102913.29
2018-11-01T18:56:21.813Z,102931.41
2018-11-01T18:58:49.926Z,103112.48
2018-11-01T19:01:18.103Z,103134.44
2018-11-01T19:03:46.198Z,103244.94
2018-11-01T19:06:14.287Z,103215.63
2018-11-01T19:08:42.439Z,103130.12
2018-11-01T19:11:10.576Z,103109.77
2018-11-01T19:13:38.670Z,103103.33
2018-11-01T19:25:20.681Z,102990.57
2018-11-01T20:10:10.671Z,103243.22
2018-11-01T20:12:45.142Z,103217.63
2018-11-01T20:15:13.250Z,103206.04
2018-11-01T20:17:41.413Z,103256.38
2018-11-01T20:20:10.988Z,103236.84
2018-11-01T20:22:46.465Z,103286.70
2018-11-01T20:25:14.746Z,103338.97
2018-11-01T21:22:30.927Z,100892.09
2018-11-01T21:25:04.656Z,101041.94
2018-11-01T22:22:15.094Z,101056.85
2018-11-01T23:22:17.671Z,101170.63
2018-11-01T23:27:38.466Z,101117.53
2018-11-01T23:30:06.741Z,101101.25
2018-11-01T23:32:35.678Z,101141.98
2018-11-01T23:35:03.839Z,101067.32
2018-11-01T23:37:37.338Z,101429.56
2018-11-01T23:40:10.982Z,101378.88
2018-11-01T23:42:44.512Z,101384.98
2018-11-01T23:45:17.987Z,101385.27
2018-11-01T23:47:51.351Z,101387.09
2018-11-01T23:50:20.931Z,101392.75
2018-11-01T23:52:52.268Z,101390.88
2018-11-01T23:55:20.382Z,101390.97
2018-11-01T23:57:48.455Z,101383.31
